sensor_id;sensor_type;location;lat;lon;timestamp;P1;durP1;ratioP1;P2;durP2;ratioP2
71042;SDS011;58696;52.134;5.500;2023-03-11T00:00:39;2.33;;;1.15;;
71042;SDS011;58696;52.134;5.500;2023-03-11T00:03:12;8.85;;;1.52;;
71042;SDS011;58696;52.134;5.500;2023-03-11T00:05:41;2.72;;;1.23;;
71042;SDS011;58696;52.134;5.500;2023-03-11T00:10:42;4.28;;;1.27;;
71042;SDS011;58696;52.134;5.500;2023-03-11T00:13:11;6.72;;;1.35;;
71042;SDS011;58696;52.134;5.500;2023-03-11T00:15:40;2.55;;;0.82;;
71042;SDS011;58696;52.134;5.500;2023-03-11T00:18:09;5.38;;;1.27;;
71042;SDS011;58696;52.134;5.500;2023-03-11T00:20:37;5.15;;;1.73;;
71042;SDS011;58696;52.134;5.500;2023-03-11T00:23:08;3.42;;;1.73;;
71042;SDS011;58696;52.134;5.500;2023-03-11T00:25:39;5.95;;;1.00;;
71042;SDS011;58696;52.134;5.500;2023-03-11T00:28:07;1.85;;;0.55;;
71042;SDS011;58696;52.134;5.500;2023-03-11T00:30:36;3.30;;;0.90;;
71042;SDS011;58696;52.134;5.500;2023-03-11T00:33:03;4.47;;;0.90;;
71042;SDS011;58696;52.134;5.500;2023-03-11T00:35:32;1.42;;;0.80;;
71042;SDS011;58696;52.134;5.500;2023-03-11T00:38:03;1.23;;;0.80;;
71042;SDS011;58696;52.134;5.500;2023-03-11T00:40:33;3.28;;;1.20;;
71042;SDS011;58696;52.134;5.500;2023-03-11T00:43:03;2.97;;;1.10;;
71042;SDS011;58696;52.134;5.500;2023-03-11T00:45:30;2.53;;;0.80;;
71042;SDS011;58696;52.134;5.500;2023-03-11T00:47:57;7.63;;;1.50;;
71042;SDS011;58696;52.134;5.500;2023-03-11T00:50:27;6.22;;;1.38;;
71042;SDS011;58696;52.134;5.500;2023-03-11T00:52:56;5.03;;;0.98;;
71042;SDS011;58696;52.134;5.500;2023-03-11T00:55:24;4.95;;;1.00;;
71042;SDS011;58696;52.134;5.500;2023-03-11T00:57:57;6.38;;;1.10;;
71042;SDS011;58696;52.134;5.500;2023-03-11T01:00:28;1.90;;;0.75;;
71042;SDS011;58696;52.134;5.500;2023-03-11T01:02:56;3.03;;;0.98;;
71042;SDS011;58696;52.134;5.500;2023-03-11T01:05:27;1.58;;;0.93;;
71042;SDS011;58696;52.134;5.500;2023-03-11T01:07:58;4.60;;;1.05;;
71042;SDS011;58696;52.134;5.500;2023-03-11T01:10:28;6.85;;;1.10;;
71042;SDS011;58696;52.134;5.500;2023-03-11T01:15:25;2.42;;;0.88;;
71042;SDS011;58696;52.134;5.500;2023-03-11T01:17:57;3.92;;;0.98;;
71042;SDS011;58696;52.134;5.500;2023-03-11T01:20:23;7.88;;;1.00;;
71042;SDS011;58696;52.134;5.500;2023-03-11T01:22:52;4.68;;;0.93;;
71042;SDS011;58696;52.134;5.500;2023-03-11T01:25:23;4.05;;;1.35;;
71042;SDS011;58696;52.134;5.500;2023-03-11T01:27:50;5.28;;;1.10;;
71042;SDS011;58696;52.134;5.500;2023-03-11T01:30:18;1.52;;;0.73;;
71042;SDS011;58696;52.134;5.500;2023-03-11T01:32:50;1.73;;;0.80;;
71042;SDS011;58696;52.134;5.500;2023-03-11T01:35:19;5.80;;;0.80;;
71042;SDS011;58696;52.134;5.500;2023-03-11T01:37:46;1.05;;;0.70;;
71042;SDS011;58696;52.134;5.500;2023-03-11T01:40:17;4.50;;;0.80;;
71042;SDS011;58696;52.134;5.500;2023-03-11T01:42:44;1.65;;;0.73;;
71042;SDS011;58696;52.134;5.500;2023-03-11T01:45:34;6.22;;;1.20;;
71042;SDS011;58696;52.134;5.500;2023-03-11T01:48:02;8.73;;;1.10;;
71042;SDS011;58696;52.134;5.500;2023-03-11T01:50:38;3.45;;;0.90;;
71042;SDS011;58696;52.134;5.500;2023-03-11T01:53:08;3.17;;;0.80;;
71042;SDS011;58696;52.134;5.500;2023-03-11T01:55:38;3.00;;;0.90;;
71042;SDS011;58696;52.134;5.500;2023-03-11T01:58:09;2.05;;;0.63;;
71042;SDS011;58696;52.134;5.500;2023-03-11T02:00:39;0.95;;;0.50;;
71042;SDS011;58696;52.134;5.500;2023-03-11T02:03:10;3.85;;;0.95;;
71042;SDS011;58696;52.134;5.500;2023-03-11T02:05:48;7.18;;;1.27;;
71042;SDS011;58696;52.134;5.500;2023-03-11T02:08:20;1.65;;;0.65;;
71042;SDS011;58696;52.134;5.500;2023-03-11T02:10:49;5.50;;;0.77;;
71042;SDS011;58696;52.134;5.500;2023-03-11T02:13:20;4.78;;;0.60;;
71042;SDS011;58696;52.134;5.500;2023-03-11T02:15:46;0.63;;;0.50;;
71042;SDS011;58696;52.134;5.500;2023-03-11T02:18:14;1.80;;;0.77;;
71042;SDS011;58696;52.134;5.500;2023-03-11T02:24:23;3.40;;;0.98;;
71042;SDS011;58696;52.134;5.500;2023-03-11T02:26:28;3.33;;;0.90;;
71042;SDS011;58696;52.134;5.500;2023-03-11T02:29:08;5.22;;;0.80;;
71042;SDS011;58696;52.134;5.500;2023-03-11T02:31:39;4.30;;;0.50;;
71042;SDS011;58696;52.134;5.500;2023-03-11T02:34:10;1.13;;;0.70;;
71042;SDS011;58696;52.134;5.500;2023-03-11T02:36:47;3.67;;;0.80;;
71042;SDS011;58696;52.134;5.500;2023-03-11T02:39:40;1.98;;;0.63;;
71042;SDS011;58696;52.134;5.500;2023-03-11T02:44:39;8.30;;;1.40;;
71042;SDS011;58696;52.134;5.500;2023-03-11T02:47:11;7.22;;;1.02;;
71042;SDS011;58696;52.134;5.500;2023-03-11T02:49:44;4.28;;;0.60;;
71042;SDS011;58696;52.134;5.500;2023-03-11T02:52:13;5.47;;;0.98;;
71042;SDS011;58696;52.134;5.500;2023-03-11T02:54:40;1.65;;;0.98;;
71042;SDS011;58696;52.134;5.500;2023-03-11T02:57:06;5.45;;;0.90;;
71042;SDS011;58696;52.134;5.500;2023-03-11T02:59:36;3.38;;;0.98;;
71042;SDS011;58696;52.134;5.500;2023-03-11T03:02:03;1.85;;;0.60;;
71042;SDS011;58696;52.134;5.500;2023-03-11T03:04:35;3.60;;;1.00;;
71042;SDS011;58696;52.134;5.500;2023-03-11T03:07:04;4.25;;;0.98;;
71042;SDS011;58696;52.134;5.500;2023-03-11T03:09:31;3.95;;;0.90;;
71042;SDS011;58696;52.134;5.500;2023-03-11T03:12:00;5.25;;;0.90;;
71042;SDS011;58696;52.134;5.500;2023-03-11T03:14:29;1.00;;;0.65;;
71042;SDS011;58696;52.134;5.500;2023-03-11T03:16:57;1.65;;;0.60;;
71042;SDS011;58696;52.134;5.500;2023-03-11T03:19:26;3.00;;;0.55;;
71042;SDS011;58696;52.134;5.500;2023-03-11T03:21:56;0.47;;;0.45;;
71042;SDS011;58696;52.134;5.500;2023-03-11T03:24:27;4.63;;;0.80;;
71042;SDS011;58696;52.134;5.500;2023-03-11T03:26:58;1.30;;;0.60;;
71042;SDS011;58696;52.134;5.500;2023-03-11T03:29:27;0.50;;;0.47;;
71042;SDS011;58696;52.134;5.500;2023-03-11T03:31:54;2.22;;;0.68;;
71042;SDS011;58696;52.134;5.500;2023-03-11T03:34:21;2.53;;;0.93;;
71042;SDS011;58696;52.134;5.500;2023-03-11T03:36:47;1.10;;;0.55;;
71042;SDS011;58696;52.134;5.500;2023-03-11T03:39:16;4.60;;;1.05;;
71042;SDS011;58696;52.134;5.500;2023-03-11T03:41:46;3.55;;;1.05;;
71042;SDS011;58696;52.134;5.500;2023-03-11T03:44:12;0.52;;;0.50;;
71042;SDS011;58696;52.134;5.500;2023-03-11T03:46:39;8.68;;;0.98;;
71042;SDS011;58696;52.134;5.500;2023-03-11T03:49:08;2.53;;;0.80;;
71042;SDS011;58696;52.134;5.500;2023-03-11T03:51:35;4.07;;;0.98;;
71042;SDS011;58696;52.134;5.500;2023-03-11T03:54:04;4.60;;;0.80;;
71042;SDS011;58696;52.134;5.500;2023-03-11T03:56:30;1.90;;;0.82;;
71042;SDS011;58696;52.134;5.500;2023-03-11T03:58:57;3.60;;;0.82;;
71042;SDS011;58696;52.134;5.500;2023-03-11T04:01:26;4.95;;;0.80;;
71042;SDS011;58696;52.134;5.500;2023-03-11T04:03:55;4.35;;;1.00;;
71042;SDS011;58696;52.134;5.500;2023-03-11T04:06:26;2.95;;;0.80;;
71042;SDS011;58696;52.134;5.500;2023-03-11T04:08:53;4.70;;;1.08;;
71042;SDS011;58696;52.134;5.500;2023-03-11T04:11:20;2.80;;;0.80;;
71042;SDS011;58696;52.134;5.500;2023-03-11T04:13:47;3.95;;;0.65;;
71042;SDS011;58696;52.134;5.500;2023-03-11T04:16:20;2.45;;;0.65;;
71042;SDS011;58696;52.134;5.500;2023-03-11T04:18:48;0.77;;;0.43;;
71042;SDS011;58696;52.134;5.500;2023-03-11T04:21:15;4.38;;;0.82;;
71042;SDS011;58696;52.134;5.500;2023-03-11T04:23:46;3.42;;;1.00;;
71042;SDS011;58696;52.134;5.500;2023-03-11T04:26:17;2.67;;;0.80;;
71042;SDS011;58696;52.134;5.500;2023-03-11T04:28:46;5.25;;;0.98;;
71042;SDS011;58696;52.134;5.500;2023-03-11T04:31:15;1.50;;;0.80;;
71042;SDS011;58696;52.134;5.500;2023-03-11T04:33:42;4.85;;;1.13;;
71042;SDS011;58696;52.134;5.500;2023-03-11T04:36:11;1.38;;;0.77;;
71042;SDS011;58696;52.134;5.500;2023-03-11T04:38:38;1.55;;;0.45;;
71042;SDS011;58696;52.134;5.500;2023-03-11T04:41:05;0.85;;;0.57;;
71042;SDS011;58696;52.134;5.500;2023-03-11T04:43:32;4.03;;;0.93;;
71042;SDS011;58696;52.134;5.500;2023-03-11T04:45:59;4.20;;;0.82;;
71042;SDS011;58696;52.134;5.500;2023-03-11T04:48:31;2.13;;;0.80;;
71042;SDS011;58696;52.134;5.500;2023-03-11T04:50:58;2.00;;;0.60;;
71042;SDS011;58696;52.134;5.500;2023-03-11T04:53:24;3.30;;;0.85;;
71042;SDS011;58696;52.134;5.500;2023-03-11T04:55:51;0.65;;;0.60;;
71042;SDS011;58696;52.134;5.500;2023-03-11T04:58:26;3.13;;;0.88;;
71042;SDS011;58696;52.134;5.500;2023-03-11T05:00:52;5.63;;;0.73;;
71042;SDS011;58696;52.134;5.500;2023-03-11T05:03:19;2.42;;;0.88;;
71042;SDS011;58696;52.134;5.500;2023-03-11T05:05:46;2.63;;;0.85;;
71042;SDS011;58696;52.134;5.500;2023-03-11T05:08:12;6.72;;;0.90;;
71042;SDS011;58696;52.134;5.500;2023-03-11T05:10:41;1.45;;;0.75;;
71042;SDS011;58696;52.134;5.500;2023-03-11T05:13:10;2.20;;;0.73;;
71042;SDS011;58696;52.134;5.500;2023-03-11T05:15:39;5.15;;;0.90;;
71042;SDS011;58696;52.134;5.500;2023-03-11T05:18:06;1.45;;;0.60;;
71042;SDS011;58696;52.134;5.500;2023-03-11T05:20:33;2.28;;;0.68;;
71042;SDS011;58696;52.134;5.500;2023-03-11T05:23:02;2.85;;;0.52;;
71042;SDS011;58696;52.134;5.500;2023-03-11T05:25:29;3.10;;;0.57;;
71042;SDS011;58696;52.134;5.500;2023-03-11T05:27:58;8.13;;;1.20;;
71042;SDS011;58696;52.134;5.500;2023-03-11T05:30:27;0.82;;;0.75;;
71042;SDS011;58696;52.134;5.500;2023-03-11T05:32:54;2.35;;;0.75;;
71042;SDS011;58696;52.134;5.500;2023-03-11T05:35:21;2.95;;;0.77;;
71042;SDS011;58696;52.134;5.500;2023-03-11T05:37:51;1.33;;;0.60;;
71042;SDS011;58696;52.134;5.500;2023-03-11T05:40:20;3.63;;;1.25;;
71042;SDS011;58696;52.134;5.500;2023-03-11T05:42:46;0.57;;;0.52;;
71042;SDS011;58696;52.134;5.500;2023-03-11T05:45:14;1.50;;;0.60;;
71042;SDS011;58696;52.134;5.500;2023-03-11T05:47:41;4.18;;;0.75;;
71042;SDS011;58696;52.134;5.500;2023-03-11T05:50:09;2.57;;;0.80;;
71042;SDS011;58696;52.134;5.500;2023-03-11T05:52:39;1.30;;;0.80;;
71042;SDS011;58696;52.134;5.500;2023-03-11T05:55:08;3.00;;;0.90;;
71042;SDS011;58696;52.134;5.500;2023-03-11T05:57:38;2.45;;;0.80;;
71042;SDS011;58696;52.134;5.500;2023-03-11T06:00:07;1.77;;;0.80;;
71042;SDS011;58696;52.134;5.500;2023-03-11T06:02:38;3.00;;;0.85;;
71042;SDS011;58696;52.134;5.500;2023-03-11T06:05:08;4.53;;;0.68;;
71042;SDS011;58696;52.134;5.500;2023-03-11T06:07:39;3.97;;;1.13;;
71042;SDS011;58696;52.134;5.500;2023-03-11T06:10:05;1.65;;;0.63;;
71042;SDS011;58696;52.134;5.500;2023-03-11T06:12:33;2.83;;;0.60;;
71042;SDS011;58696;52.134;5.500;2023-03-11T06:15:00;2.45;;;0.90;;
71042;SDS011;58696;52.134;5.500;2023-03-11T06:17:26;2.05;;;0.60;;
71042;SDS011;58696;52.134;5.500;2023-03-11T06:19:55;1.00;;;0.60;;
71042;SDS011;58696;52.134;5.500;2023-03-11T06:22:23;3.92;;;0.75;;
71042;SDS011;58696;52.134;5.500;2023-03-11T06:24:49;6.88;;;0.77;;
71042;SDS011;58696;52.134;5.500;2023-03-11T06:27:18;1.85;;;0.57;;
71042;SDS011;58696;52.134;5.500;2023-03-11T06:29:45;5.47;;;0.65;;
71042;SDS011;58696;52.134;5.500;2023-03-11T06:32:16;2.55;;;0.73;;
71042;SDS011;58696;52.134;5.500;2023-03-11T06:34:48;1.83;;;0.70;;
71042;SDS011;58696;52.134;5.500;2023-03-11T06:37:18;0.80;;;0.45;;
71042;SDS011;58696;52.134;5.500;2023-03-11T06:39:51;0.32;;;0.30;;
71042;SDS011;58696;52.134;5.500;2023-03-11T06:42:22;2.10;;;0.60;;
71042;SDS011;58696;52.134;5.500;2023-03-11T06:44:52;1.45;;;0.63;;
71042;SDS011;58696;52.134;5.500;2023-03-11T06:47:18;1.88;;;0.68;;
71042;SDS011;58696;52.134;5.500;2023-03-11T06:49:47;0.45;;;0.40;;
71042;SDS011;58696;52.134;5.500;2023-03-11T06:52:15;1.58;;;0.60;;
71042;SDS011;58696;52.134;5.500;2023-03-11T06:54:44;2.78;;;0.60;;
71042;SDS011;58696;52.134;5.500;2023-03-11T06:57:13;1.20;;;0.70;;
71042;SDS011;58696;52.134;5.500;2023-03-11T06:59:43;0.90;;;0.80;;
71042;SDS011;58696;52.134;5.500;2023-03-11T07:02:12;2.45;;;1.17;;
71042;SDS011;58696;52.134;5.500;2023-03-11T07:04:40;6.22;;;0.90;;
71042;SDS011;58696;52.134;5.500;2023-03-11T07:07:06;0.75;;;0.75;;
71042;SDS011;58696;52.134;5.500;2023-03-11T07:09:33;2.05;;;1.30;;
71042;SDS011;58696;52.134;5.500;2023-03-11T07:11:59;2.85;;;1.33;;
71042;SDS011;58696;52.134;5.500;2023-03-11T07:14:32;3.00;;;1.50;;
71042;SDS011;58696;52.134;5.500;2023-03-11T07:16:58;4.03;;;1.85;;
71042;SDS011;58696;52.134;5.500;2023-03-11T07:19:25;10.77;;;1.70;;
71042;SDS011;58696;52.134;5.500;2023-03-11T07:21:55;4.30;;;1.77;;
71042;SDS011;58696;52.134;5.500;2023-03-11T07:24:24;4.43;;;1.38;;
71042;SDS011;58696;52.134;5.500;2023-03-11T07:26:51;3.33;;;1.30;;
71042;SDS011;58696;52.134;5.500;2023-03-11T07:29:19;20.98;;;2.03;;
71042;SDS011;58696;52.134;5.500;2023-03-11T07:31:47;32.55;;;2.00;;
71042;SDS011;58696;52.134;5.500;2023-03-11T07:34:17;10.20;;;1.30;;
71042;SDS011;58696;52.134;5.500;2023-03-11T07:36:46;4.72;;;1.30;;
71042;SDS011;58696;52.134;5.500;2023-03-11T07:39:14;10.38;;;1.20;;
71042;SDS011;58696;52.134;5.500;2023-03-11T07:41:45;1.70;;;0.82;;
71042;SDS011;58696;52.134;5.500;2023-03-11T07:44:14;4.68;;;0.70;;
71042;SDS011;58696;52.134;5.500;2023-03-11T07:46:43;2.10;;;0.52;;
71042;SDS011;58696;52.134;5.500;2023-03-11T07:49:13;1.77;;;0.63;;
71042;SDS011;58696;52.134;5.500;2023-03-11T07:51:40;4.45;;;0.90;;
71042;SDS011;58696;52.134;5.500;2023-03-11T07:54:10;1.67;;;0.57;;
71042;SDS011;58696;52.134;5.500;2023-03-11T07:56:38;2.03;;;0.75;;
71042;SDS011;58696;52.134;5.500;2023-03-11T07:59:04;2.85;;;0.75;;
71042;SDS011;58696;52.134;5.500;2023-03-11T08:01:31;4.10;;;0.95;;
71042;SDS011;58696;52.134;5.500;2023-03-11T08:04:06;3.72;;;0.82;;
71042;SDS011;58696;52.134;5.500;2023-03-11T08:06:34;5.40;;;0.90;;
71042;SDS011;58696;52.134;5.500;2023-03-11T08:09:05;1.90;;;0.75;;
71042;SDS011;58696;52.134;5.500;2023-03-11T08:11:35;8.32;;;1.50;;
71042;SDS011;58696;52.134;5.500;2023-03-11T08:14:05;3.85;;;0.80;;
71042;SDS011;58696;52.134;5.500;2023-03-11T08:16:34;4.35;;;0.80;;
71042;SDS011;58696;52.134;5.500;2023-03-11T08:19:00;0.73;;;0.60;;
71042;SDS011;58696;52.134;5.500;2023-03-11T08:21:28;1.88;;;0.90;;
71042;SDS011;58696;52.134;5.500;2023-03-11T08:23:59;3.38;;;1.08;;
71042;SDS011;58696;52.134;5.500;2023-03-11T08:26:32;2.88;;;0.82;;
71042;SDS011;58696;52.134;5.500;2023-03-11T08:29:02;1.75;;;0.88;;
71042;SDS011;58696;52.134;5.500;2023-03-11T08:31:29;2.17;;;1.00;;
71042;SDS011;58696;52.134;5.500;2023-03-11T08:34:03;4.10;;;0.98;;
71042;SDS011;58696;52.134;5.500;2023-03-11T08:36:34;8.75;;;1.25;;
71042;SDS011;58696;52.134;5.500;2023-03-11T08:39:04;2.80;;;1.10;;
71042;SDS011;58696;52.134;5.500;2023-03-11T08:41:33;2.97;;;0.82;;
71042;SDS011;58696;52.134;5.500;2023-03-11T08:44:02;2.85;;;1.17;;
71042;SDS011;58696;52.134;5.500;2023-03-11T08:46:30;2.80;;;1.65;;
71042;SDS011;58696;52.134;5.500;2023-03-11T08:49:02;2.53;;;1.02;;
71042;SDS011;58696;52.134;5.500;2023-03-11T08:51:32;3.20;;;1.08;;
71042;SDS011;58696;52.134;5.500;2023-03-11T08:54:02;9.60;;;1.45;;
71042;SDS011;58696;52.134;5.500;2023-03-11T08:56:32;3.58;;;0.93;;
71042;SDS011;58696;52.134;5.500;2023-03-11T08:59:00;4.32;;;1.35;;
71042;SDS011;58696;52.134;5.500;2023-03-11T09:01:33;1.88;;;0.85;;
71042;SDS011;58696;52.134;5.500;2023-03-11T09:03:59;4.40;;;0.90;;
71042;SDS011;58696;52.134;5.500;2023-03-11T09:06:26;5.55;;;3.42;;
71042;SDS011;58696;52.134;5.500;2023-03-11T09:08:55;4.10;;;1.77;;
71042;SDS011;58696;52.134;5.500;2023-03-11T09:11:27;5.00;;;3.38;;
71042;SDS011;58696;52.134;5.500;2023-03-11T09:13:56;2.13;;;1.20;;
71042;SDS011;58696;52.134;5.500;2023-03-11T09:16:22;6.53;;;4.40;;
71042;SDS011;58696;52.134;5.500;2023-03-11T09:18:53;6.93;;;4.55;;
71042;SDS011;58696;52.134;5.500;2023-03-11T09:21:25;3.83;;;1.80;;
71042;SDS011;58696;52.134;5.500;2023-03-11T09:23:54;4.30;;;2.00;;
71042;SDS011;58696;52.134;5.500;2023-03-11T09:26:23;7.47;;;1.83;;
71042;SDS011;58696;52.134;5.500;2023-03-11T09:28:52;6.80;;;1.48;;
71042;SDS011;58696;52.134;5.500;2023-03-11T09:31:21;6.57;;;2.58;;
71042;SDS011;58696;52.134;5.500;2023-03-11T09:33:48;3.33;;;1.02;;
71042;SDS011;58696;52.134;5.500;2023-03-11T09:36:21;8.68;;;1.48;;
71042;SDS011;58696;52.134;5.500;2023-03-11T09:38:50;2.58;;;1.83;;
71042;SDS011;58696;52.134;5.500;2023-03-11T09:50:38;8.15;;;4.80;;
71042;SDS011;58696;52.134;5.500;2023-03-11T09:53:21;6.32;;;1.80;;
71042;SDS011;58696;52.134;5.500;2023-03-11T09:56:00;1.15;;;0.93;;
71042;SDS011;58696;52.134;5.500;2023-03-11T09:58:37;5.03;;;1.02;;
71042;SDS011;58696;52.134;5.500;2023-03-11T10:04:03;5.72;;;0.90;;
71042;SDS011;58696;52.134;5.500;2023-03-11T10:06:35;4.18;;;0.70;;
71042;SDS011;58696;52.134;5.500;2023-03-11T10:23:21;7.55;;;0.75;;
71042;SDS011;58696;52.134;5.500;2023-03-11T10:25:59;6.45;;;0.63;;
71042;SDS011;58696;52.134;5.500;2023-03-11T10:28:40;2.67;;;0.65;;
71042;SDS011;58696;52.134;5.500;2023-03-11T10:33:49;2.77;;;1.30;;
71042;SDS011;58696;52.134;5.500;2023-03-11T10:36:22;4.13;;;0.68;;
71042;SDS011;58696;52.134;5.500;2023-03-11T10:38:54;2.55;;;0.90;;
71042;SDS011;58696;52.134;5.500;2023-03-11T10:41:28;6.03;;;0.75;;
71042;SDS011;58696;52.134;5.500;2023-03-11T10:44:03;2.80;;;0.73;;
71042;SDS011;58696;52.134;5.500;2023-03-11T10:46:40;5.47;;;0.93;;
71042;SDS011;58696;52.134;5.500;2023-03-11T10:49:15;2.35;;;0.77;;
71042;SDS011;58696;52.134;5.500;2023-03-11T10:51:47;3.88;;;1.30;;
71042;SDS011;58696;52.134;5.500;2023-03-11T10:59:55;2.55;;;0.98;;
71042;SDS011;58696;52.134;5.500;2023-03-11T11:07:39;5.70;;;0.68;;
71042;SDS011;58696;52.134;5.500;2023-03-11T11:10:12;3.42;;;0.95;;
71042;SDS011;58696;52.134;5.500;2023-03-11T11:13:01;4.38;;;0.88;;
71042;SDS011;58696;52.134;5.500;2023-03-11T11:15:42;5.60;;;1.13;;
71042;SDS011;58696;52.134;5.500;2023-03-11T11:21:31;0.95;;;0.50;;
71042;SDS011;58696;52.134;5.500;2023-03-11T11:24:13;3.55;;;0.77;;
71042;SDS011;58696;52.134;5.500;2023-03-11T11:26:41;3.08;;;0.80;;
71042;SDS011;58696;52.134;5.500;2023-03-11T11:29:27;3.40;;;0.70;;
71042;SDS011;58696;52.134;5.500;2023-03-11T11:31:54;2.25;;;0.70;;
71042;SDS011;58696;52.134;5.500;2023-03-11T11:34:57;5.20;;;0.90;;
71042;SDS011;58696;52.134;5.500;2023-03-11T11:37:28;3.78;;;1.00;;
71042;SDS011;58696;52.134;5.500;2023-03-11T11:40:00;3.28;;;0.90;;
71042;SDS011;58696;52.134;5.500;2023-03-11T11:42:37;2.73;;;1.17;;
71042;SDS011;58696;52.134;5.500;2023-03-11T11:45:15;8.88;;;1.42;;
71042;SDS011;58696;52.134;5.500;2023-03-11T11:47:52;3.88;;;1.40;;
71042;SDS011;58696;52.134;5.500;2023-03-11T11:50:33;9.60;;;2.90;;
71042;SDS011;58696;52.134;5.500;2023-03-11T11:53:04;10.50;;;3.45;;
71042;SDS011;58696;52.134;5.500;2023-03-11T11:55:56;8.52;;;3.42;;
71042;SDS011;58696;52.134;5.500;2023-03-11T11:58:22;4.90;;;2.13;;
71042;SDS011;58696;52.134;5.500;2023-03-11T12:06:17;4.55;;;0.93;;
71042;SDS011;58696;52.134;5.500;2023-03-11T12:11:38;4.28;;;0.95;;
71042;SDS011;58696;52.134;5.500;2023-03-11T12:14:17;4.57;;;0.70;;
71042;SDS011;58696;52.134;5.500;2023-03-11T12:24:39;2.35;;;0.77;;
71042;SDS011;58696;52.134;5.500;2023-03-11T12:28:22;1.75;;;0.70;;
71042;SDS011;58696;52.134;5.500;2023-03-11T12:30:47;1.98;;;0.98;;
71042;SDS011;58696;52.134;5.500;2023-03-11T12:33:34;2.42;;;0.70;;
71042;SDS011;58696;52.134;5.500;2023-03-11T12:36:02;2.88;;;0.73;;
71042;SDS011;58696;52.134;5.500;2023-03-11T12:41:30;6.40;;;0.80;;
71042;SDS011;58696;52.134;5.500;2023-03-11T12:44:01;1.35;;;0.40;;
71042;SDS011;58696;52.134;5.500;2023-03-11T12:49:31;2.60;;;0.80;;
71042;SDS011;58696;52.134;5.500;2023-03-11T12:52:02;2.17;;;0.80;;
71042;SDS011;58696;52.134;5.500;2023-03-11T12:54:34;1.63;;;0.95;;
71042;SDS011;58696;52.134;5.500;2023-03-11T13:08:22;3.25;;;0.90;;
71042;SDS011;58696;52.134;5.500;2023-03-11T13:10:51;2.17;;;0.63;;
71042;SDS011;58696;52.134;5.500;2023-03-11T13:18:41;1.88;;;0.80;;
71042;SDS011;58696;52.134;5.500;2023-03-11T13:24:38;2.60;;;0.70;;
71042;SDS011;58696;52.134;5.500;2023-03-11T13:27:01;1.13;;;0.75;;
71042;SDS011;58696;52.134;5.500;2023-03-11T13:35:57;1.70;;;0.50;;
71042;SDS011;58696;52.134;5.500;2023-03-11T13:41:28;0.70;;;0.40;;
71042;SDS011;58696;52.134;5.500;2023-03-11T13:44:02;2.95;;;0.50;;
71042;SDS011;58696;52.134;5.500;2023-03-11T13:46:38;1.27;;;0.50;;
71042;SDS011;58696;52.134;5.500;2023-03-11T13:51:52;2.72;;;0.88;;
71042;SDS011;58696;52.134;5.500;2023-03-11T13:54:33;1.70;;;0.60;;
71042;SDS011;58696;52.134;5.500;2023-03-11T13:57:04;6.28;;;0.63;;
71042;SDS011;58696;52.134;5.500;2023-03-11T13:59:33;2.47;;;0.75;;
71042;SDS011;58696;52.134;5.500;2023-03-11T14:02:35;2.83;;;0.50;;
71042;SDS011;58696;52.134;5.500;2023-03-11T14:05:01;1.45;;;0.50;;
71042;SDS011;58696;52.134;5.500;2023-03-11T14:07:33;2.58;;;0.77;;
71042;SDS011;58696;52.134;5.500;2023-03-11T14:10:16;2.55;;;0.60;;
71042;SDS011;58696;52.134;5.500;2023-03-11T14:12:48;1.35;;;0.40;;
71042;SDS011;58696;52.134;5.500;2023-03-11T14:15:23;3.13;;;0.60;;
71042;SDS011;58696;52.134;5.500;2023-03-11T14:17:53;2.63;;;0.47;;
71042;SDS011;58696;52.134;5.500;2023-03-11T14:21:03;1.48;;;0.50;;
71042;SDS011;58696;52.134;5.500;2023-03-11T14:23:39;1.25;;;0.60;;
71042;SDS011;58696;52.134;5.500;2023-03-11T14:26:23;2.65;;;0.52;;
71042;SDS011;58696;52.134;5.500;2023-03-11T14:28:56;1.05;;;0.43;;
71042;SDS011;58696;52.134;5.500;2023-03-11T14:31:29;2.55;;;0.70;;
71042;SDS011;58696;52.134;5.500;2023-03-11T14:34:19;2.17;;;0.57;;
71042;SDS011;58696;52.134;5.500;2023-03-11T14:36:51;0.88;;;0.50;;
71042;SDS011;58696;52.134;5.500;2023-03-11T14:39:30;1.70;;;0.60;;
71042;SDS011;58696;52.134;5.500;2023-03-11T14:42:28;2.47;;;0.60;;
71042;SDS011;58696;52.134;5.500;2023-03-11T14:45:03;1.92;;;0.73;;
71042;SDS011;58696;52.134;5.500;2023-03-11T14:50:31;1.90;;;0.87;;
71042;SDS011;58696;52.134;5.500;2023-03-11T14:53:04;1.23;;;0.68;;
71042;SDS011;58696;52.134;5.500;2023-03-11T14:55:49;0.98;;;0.47;;
71042;SDS011;58696;52.134;5.500;2023-03-11T15:04:11;1.67;;;0.60;;
71042;SDS011;58696;52.134;5.500;2023-03-11T15:06:42;3.50;;;1.00;;
71042;SDS011;58696;52.134;5.500;2023-03-11T15:09:18;4.47;;;0.68;;
71042;SDS011;58696;52.134;5.500;2023-03-11T15:11:55;1.45;;;0.60;;
71042;SDS011;58696;52.134;5.500;2023-03-11T15:14:28;1.40;;;0.63;;
71042;SDS011;58696;52.134;5.500;2023-03-11T15:17:18;0.95;;;0.60;;
71042;SDS011;58696;52.134;5.500;2023-03-11T15:20:31;2.55;;;0.90;;
71042;SDS011;58696;52.134;5.500;2023-03-11T15:23:00;3.95;;;0.68;;
71042;SDS011;58696;52.134;5.500;2023-03-11T15:25:35;2.30;;;0.70;;
71042;SDS011;58696;52.134;5.500;2023-03-11T15:28:20;1.90;;;0.60;;
71042;SDS011;58696;52.134;5.500;2023-03-11T15:31:13;0.82;;;0.40;;
71042;SDS011;58696;52.134;5.500;2023-03-11T15:39:05;0.95;;;0.55;;
71042;SDS011;58696;52.134;5.500;2023-03-11T15:41:55;0.75;;;0.50;;
71042;SDS011;58696;52.134;5.500;2023-03-11T15:44:30;1.45;;;0.52;;
71042;SDS011;58696;52.134;5.500;2023-03-11T15:49:29;1.38;;;0.95;;
71042;SDS011;58696;52.134;5.500;2023-03-11T15:51:59;2.38;;;0.80;;
71042;SDS011;58696;52.134;5.500;2023-03-11T15:54:27;2.40;;;0.55;;
71042;SDS011;58696;52.134;5.500;2023-03-11T15:56:57;1.20;;;0.55;;
71042;SDS011;58696;52.134;5.500;2023-03-11T15:59:31;0.60;;;0.35;;
71042;SDS011;58696;52.134;5.500;2023-03-11T16:01:59;1.38;;;0.55;;
71042;SDS011;58696;52.134;5.500;2023-03-11T16:04:30;2.40;;;0.52;;
71042;SDS011;58696;52.134;5.500;2023-03-11T16:06:58;1.50;;;0.50;;
71042;SDS011;58696;52.134;5.500;2023-03-11T16:09:36;2.55;;;0.47;;
71042;SDS011;58696;52.134;5.500;2023-03-11T16:12:08;1.95;;;0.70;;
71042;SDS011;58696;52.134;5.500;2023-03-11T16:14:45;0.90;;;0.60;;
71042;SDS011;58696;52.134;5.500;2023-03-11T16:17:12;1.90;;;0.50;;
71042;SDS011;58696;52.134;5.500;2023-03-11T16:19:45;4.38;;;0.60;;
71042;SDS011;58696;52.134;5.500;2023-03-11T16:22:16;1.73;;;0.55;;
71042;SDS011;58696;52.134;5.500;2023-03-11T16:24:47;4.05;;;0.73;;
71042;SDS011;58696;52.134;5.500;2023-03-11T16:27:16;0.93;;;0.63;;
71042;SDS011;58696;52.134;5.500;2023-03-11T16:29:44;0.95;;;0.68;;
71042;SDS011;58696;52.134;5.500;2023-03-11T16:32:11;3.05;;;0.50;;
71042;SDS011;58696;52.134;5.500;2023-03-11T16:34:40;1.92;;;0.70;;
71042;SDS011;58696;52.134;5.500;2023-03-11T16:37:09;1.50;;;0.60;;
71042;SDS011;58696;52.134;5.500;2023-03-11T16:39:42;1.75;;;0.70;;
71042;SDS011;58696;52.134;5.500;2023-03-11T16:42:08;0.70;;;0.50;;
71042;SDS011;58696;52.134;5.500;2023-03-11T16:44:37;3.75;;;0.70;;
71042;SDS011;58696;52.134;5.500;2023-03-11T16:47:03;4.57;;;0.60;;
71042;SDS011;58696;52.134;5.500;2023-03-11T16:49:31;1.60;;;0.50;;
71042;SDS011;58696;52.134;5.500;2023-03-11T16:51:58;1.15;;;0.80;;
71042;SDS011;58696;52.134;5.500;2023-03-11T16:54:24;5.82;;;0.85;;
71042;SDS011;58696;52.134;5.500;2023-03-11T16:56:51;1.63;;;0.63;;
71042;SDS011;58696;52.134;5.500;2023-03-11T16:59:17;1.67;;;0.70;;
71042;SDS011;58696;52.134;5.500;2023-03-11T17:01:46;3.65;;;0.50;;
71042;SDS011;58696;52.134;5.500;2023-03-11T17:04:13;2.60;;;0.80;;
71042;SDS011;58696;52.134;5.500;2023-03-11T17:06:45;0.60;;;0.60;;
71042;SDS011;58696;52.134;5.500;2023-03-11T17:09:13;4.03;;;0.73;;
71042;SDS011;58696;52.134;5.500;2023-03-11T17:11:40;7.93;;;0.90;;
71042;SDS011;58696;52.134;5.500;2023-03-11T17:14:09;2.90;;;0.95;;
71042;SDS011;58696;52.134;5.500;2023-03-11T17:16:43;1.23;;;0.65;;